Terminal Aerodrome Forecast
Issued by NWS Omaha/Valley, NE

Home | Current Version | Previous Version | Text Only | Print | Product List | Glossary On
Versions: 1 2 3 4 5 6 7 8 9 10 11 12 13 14 15 16 17 18 19 20 21 22 23 24
000
FTUS43 KOAX 260339 AAA
TAFLNK
TAF AMD
KLNK 260339Z 2604/2624 VRB04KT P6SM VCTS BKN060CB
      TEMPO 2604/2607 VRB15KT 3SM TSRA BKN030CB
     FM260700 VRB03KT P6SM BKN150
     FM261400 11005KT P6SM OVC030
     FM261800 13008KT P6SM OVC050 PROB30 2618/2622 4SM TSRA
      BKN040CB=

USA.gov is the U.S. government's official web portal to all federal, state and local government web resources and services.